createdAt,value
2019-04-23T00:01:16.493Z,6.70
2019-04-23T00:03:41.600Z,6.70
2019-04-23T00:06:15.264Z,6.40
2019-04-23T00:11:17.101Z,6.50
2019-04-23T00:13:45.353Z,6.37
2019-04-23T00:16:15.429Z,6.97
2019-04-23T00:18:42.291Z,6.80
2019-04-23T00:26:47.516Z,6.97
2019-04-23T00:29:05.372Z,6.57
2019-04-23T00:31:31.153Z,7.30
2019-04-23T00:34:02.243Z,6.80
2019-04-23T00:39:01.374Z,6.70
2019-04-23T00:41:39.135Z,7.40
2019-04-23T00:46:36.843Z,6.37
2019-04-23T00:51:36.845Z,5.93
2019-04-23T00:54:05.923Z,6.60
2019-04-23T00:56:52.639Z,5.87
2019-04-23T00:59:08.379Z,6.37
2019-04-23T01:01:42.734Z,6.00
2019-04-23T01:04:07.102Z,6.80
2019-04-23T01:06:39.017Z,6.43
2019-04-23T01:09:08.876Z,6.80
2019-04-23T01:11:41.863Z,6.20
2019-04-23T01:14:08.255Z,5.60
2019-04-23T01:16:38.242Z,5.87
2019-04-23T01:21:57.946Z,5.60
2019-04-23T01:24:52.992Z,5.40
2019-04-23T01:30:19.866Z,5.40
2019-04-23T01:32:54.750Z,5.23
2019-04-23T01:35:26.953Z,5.40
2019-04-23T01:37:55.693Z,4.93
2019-04-23T01:40:32.001Z,5.90
2019-04-23T01:43:01.724Z,5.23
2019-04-23T01:45:26.969Z,5.10
2019-04-23T01:48:12.875Z,5.20
2019-04-23T01:50:37.633Z,5.30
2019-04-23T01:53:13.776Z,5.50
2019-04-23T01:55:36.464Z,5.80
2019-04-23T01:58:20.707Z,5.17
2019-04-23T02:00:34.175Z,5.10
2019-04-23T02:05:35.020Z,5.80
2019-04-23T02:10:49.092Z,5.20
2019-04-23T02:15:42.448Z,5.40
2019-04-23T02:18:18.156Z,5.40
2019-04-23T02:20:50.977Z,6.27
2019-04-23T02:23:31.259Z,5.70
2019-04-23T02:26:12.952Z,5.83
2019-04-23T02:28:36.605Z,6.00
2019-04-23T02:31:29.695Z,5.70
2019-04-23T02:33:44.636Z,6.00
2019-04-23T02:38:45.195Z,6.07
2019-04-23T02:41:26.578Z,5.73
2019-04-23T02:43:44.268Z,6.27
2019-04-23T02:46:08.023Z,7.23
2019-04-23T02:48:45.865Z,6.17
2019-04-23T02:51:10.983Z,5.70
2019-04-23T02:54:04.012Z,6.07
2019-04-23T02:58:57.696Z,5.90
2019-04-23T03:03:49.717Z,6.47
2019-04-23T03:06:20.802Z,6.20
2019-04-23T03:08:47.125Z,6.27
2019-04-23T03:11:26.728Z,5.63
2019-04-23T03:16:38.095Z,6.23
2019-04-23T03:24:55.090Z,6.47
2019-04-23T03:42:24.045Z,6.70
2019-04-23T03:47:32.622Z,6.43
2019-04-23T03:50:15.310Z,6.03
2019-04-23T03:54:51.644Z,6.37
2019-04-23T03:57:30.982Z,6.43
2019-04-23T04:00:03.830Z,6.27
2019-04-23T04:02:40.326Z,6.50
2019-04-23T04:15:31.192Z,6.90
2019-04-23T04:17:26.728Z,6.40
2019-04-23T04:20:15.269Z,6.53
2019-04-23T04:25:14.371Z,7.17
2019-04-23T04:30:10.686Z,6.47
2019-04-23T04:32:51.043Z,6.77
2019-04-23T04:37:52.870Z,6.87
2019-04-23T04:42:46.806Z,7.00
2019-04-23T04:45:22.815Z,7.03
2019-04-23T04:50:08.173Z,7.03
2019-04-23T04:52:46.941Z,7.40
2019-04-23T04:55:21.056Z,7.00
2019-04-23T04:57:52.676Z,6.80
2019-04-23T05:00:30.105Z,6.97
2019-04-23T05:03:04.251Z,7.03
2019-04-23T05:05:38.041Z,7.43
2019-04-23T05:10:29.677Z,7.50
2019-04-23T05:13:06.246Z,7.23
2019-04-23T05:15:35.269Z,7.60
2019-04-23T05:21:01.906Z,7.87
2019-04-23T05:23:42.788Z,7.57
2019-04-23T05:26:19.228Z,7.83
2019-04-23T05:28:57.166Z,7.93
2019-04-23T05:31:18.688Z,8.10
2019-04-23T05:33:49.296Z,7.40
2019-04-23T05:41:22.232Z,7.27
2019-04-23T05:43:46.459Z,7.33
2019-04-23T05:48:53.180Z,7.37
2019-04-23T05:51:33.520Z,7.90
2019-04-23T05:56:21.229Z,7.13
2019-04-23T05:58:53.032Z,7.47
2019-04-23T06:01:49.282Z,7.03
2019-04-23T06:04:04.063Z,6.70
2019-04-23T06:06:37.829Z,7.00
2019-04-23T06:08:58.415Z,7.40
2019-04-23T06:11:37.018Z,7.03
2019-04-23T06:16:36.066Z,6.97
2019-04-23T06:19:09.624Z,6.90
2019-04-23T06:21:34.599Z,7.33
2019-04-23T06:26:49.257Z,6.93
2019-04-23T06:29:07.106Z,6.70
2019-04-23T06:31:40.751Z,7.33
2019-04-23T06:34:03.849Z,7.40
2019-04-23T06:36:32.421Z,6.83
2019-04-23T06:39:02.773Z,6.17
2019-04-23T06:41:41.818Z,6.53
2019-04-23T06:46:51.547Z,6.33
2019-04-23T06:49:21.944Z,6.70
2019-04-23T06:51:51.861Z,6.93
2019-04-23T06:54:18.581Z,6.63
2019-04-23T06:57:00.702Z,6.80
2019-04-23T07:01:59.743Z,6.30
2019-04-23T07:04:32.766Z,6.33
2019-04-23T07:07:21.715Z,6.37
2019-04-23T07:09:20.579Z,6.90
2019-04-23T07:11:47.885Z,5.73
2019-04-23T07:14:31.951Z,6.40
2019-04-23T07:16:52.571Z,5.90
2019-04-23T07:22:04.721Z,6.00
2019-04-23T07:24:28.823Z,6.17
2019-04-23T07:26:52.818Z,5.97
2019-04-23T07:29:31.353Z,5.97
2019-04-23T07:34:29.895Z,5.87
2019-04-23T07:37:08.810Z,6.13
2019-04-23T07:40:12.997Z,6.20
2019-04-23T07:42:39.433Z,6.20
2019-04-23T07:48:11.957Z,6.17
2019-04-23T08:00:45.505Z,6.03
2019-04-23T08:05:43.959Z,6.03
2019-04-23T08:08:41.770Z,6.03
2019-04-23T08:11:18.062Z,6.67
2019-04-23T08:13:30.975Z,5.67
2019-04-23T08:16:13.729Z,6.10
2019-04-23T08:18:49.418Z,6.37
2019-04-23T08:21:07.146Z,6.03
2019-04-23T08:23:56.910Z,5.83
2019-04-23T08:29:13.936Z,6.00
2019-04-23T08:34:25.655Z,6.60
2019-04-23T08:36:50.114Z,6.13
2019-04-23T08:39:18.259Z,6.37
2019-04-23T08:42:12.353Z,6.63
2019-04-23T08:44:47.624Z,5.70
2019-04-23T08:47:15.593Z,6.90
2019-04-23T08:52:15.624Z,5.67
2019-04-23T08:54:49.853Z,6.70
2019-04-23T08:59:44.056Z,6.27
2019-04-23T09:02:26.603Z,6.40
2019-04-23T09:04:50.253Z,6.00
2019-04-23T09:07:16.672Z,6.47
2019-04-23T09:09:51.056Z,6.57
2019-04-23T09:12:16.733Z,6.67
2019-04-23T09:14:45.051Z,6.37
2019-04-23T09:17:34.801Z,6.67
2019-04-23T09:20:08.117Z,6.77
2019-04-23T09:22:20.863Z,7.00
2019-04-23T09:24:47.067Z,7.00
2019-04-23T09:27:22.169Z,6.53
2019-04-23T09:30:07.209Z,6.50
2019-04-23T09:32:26.658Z,7.03
2019-04-23T09:35:15.594Z,7.07
2019-04-23T09:41:15.710Z,7.57
2019-04-23T09:43:47.130Z,6.60
2019-04-23T09:46:23.585Z,6.33
2019-04-23T09:48:58.262Z,6.57
2019-04-23T09:51:32.782Z,7.40
2019-04-23T09:53:57.718Z,8.53
2019-04-23T09:56:30.539Z,6.73
2019-04-23T09:59:01.199Z,7.53
2019-04-23T10:03:47.933Z,6.57
2019-04-23T10:06:12.678Z,6.70
2019-04-23T10:08:43.052Z,6.63
2019-04-23T10:11:09.511Z,7.13
2019-04-23T10:13:38.681Z,6.40
2019-04-23T10:16:10.286Z,6.80
2019-04-23T10:18:39.355Z,6.63
2019-04-23T10:21:08.852Z,6.67
2019-04-23T10:23:39.092Z,6.57
2019-04-23T10:26:08.047Z,6.73
2019-04-23T10:28:52.000Z,6.57
2019-04-23T10:31:20.980Z,6.70
2019-04-23T10:33:50.493Z,6.50
2019-04-23T10:36:21.929Z,6.70
2019-04-23T10:38:59.757Z,6.77
2019-04-23T10:41:20.241Z,6.93
2019-04-23T10:43:56.182Z,6.53
2019-04-23T10:47:26.998Z,6.80
2019-04-23T10:52:28.094Z,6.70
2019-04-23T11:00:13.766Z,6.90
2019-04-23T11:05:16.374Z,7.27
2019-04-23T11:07:31.044Z,6.40
2019-04-23T11:10:07.225Z,6.90
2019-04-23T11:12:46.170Z,6.80
2019-04-23T11:15:50.617Z,7.20
2019-04-23T11:17:47.795Z,6.97
2019-04-23T11:20:30.015Z,6.93
2019-04-23T11:27:58.552Z,7.00
2019-04-23T11:33:05.038Z,7.13
2019-04-23T11:40:25.461Z,6.60
2019-04-23T11:53:02.679Z,7.57
2019-04-23T12:00:46.304Z,7.30
2019-04-23T12:03:17.802Z,7.20
2019-04-23T12:06:25.075Z,7.50
2019-04-23T12:09:18.359Z,6.83
2019-04-23T12:14:29.152Z,6.73
2019-04-23T12:17:09.639Z,6.90
2019-04-23T12:22:01.488Z,6.77
2019-04-23T12:27:00.865Z,7.00
2019-04-23T12:29:33.018Z,7.60
2019-04-23T12:32:40.577Z,7.80
2019-04-23T12:37:28.607Z,6.57
2019-04-23T12:40:00.765Z,7.17
2019-04-23T12:42:48.534Z,7.10
2019-04-23T12:55:08.685Z,6.33
2019-04-23T12:59:58.363Z,7.10
2019-04-23T13:02:38.321Z,6.63
2019-04-23T13:05:00.498Z,6.53
2019-04-23T13:07:43.554Z,6.30
2019-04-23T13:10:13.192Z,6.60
2019-04-23T13:17:44.559Z,6.70
2019-04-23T13:20:15.551Z,6.73
2019-04-23T13:22:49.481Z,6.00
2019-04-23T13:25:35.153Z,6.30
2019-04-23T13:30:44.785Z,6.27
2019-04-23T13:33:15.666Z,6.57
2019-04-23T13:35:50.608Z,6.67
2019-04-23T13:40:51.234Z,6.47
2019-04-23T13:43:12.201Z,6.67
2019-04-23T13:46:00.901Z,6.60
2019-04-23T13:53:21.068Z,6.17
2019-04-23T13:55:42.543Z,5.97
2019-04-23T13:58:30.172Z,6.10
2019-04-23T14:03:25.723Z,6.10
2019-04-23T14:13:51.024Z,5.33
2019-04-23T14:16:22.711Z,6.53
2019-04-23T14:26:29.403Z,5.70
2019-04-23T14:28:44.850Z,6.30
2019-04-23T14:33:58.471Z,5.93
2019-04-23T14:36:19.937Z,6.03
2019-04-23T14:38:49.507Z,5.90
2019-04-23T14:43:57.952Z,6.30
2019-04-23T14:46:36.617Z,5.83
2019-04-23T14:49:11.224Z,5.63
2019-04-23T14:51:32.256Z,5.33
2019-04-23T14:53:47.890Z,6.10
2019-04-23T14:56:22.550Z,7.00
2019-04-23T15:03:49.265Z,7.33
2019-04-23T15:06:38.022Z,5.90
2019-04-23T15:09:04.305Z,6.83
2019-04-23T15:14:03.559Z,6.13
2019-04-23T15:16:31.511Z,6.30
2019-04-23T15:19:34.993Z,5.93
2019-04-23T15:24:23.135Z,5.47
2019-04-23T15:29:02.784Z,5.33
2019-04-23T15:31:57.639Z,5.83
2019-04-23T15:34:30.553Z,5.37
2019-04-23T15:37:11.279Z,5.20
2019-04-23T15:39:24.290Z,5.63
2019-04-23T15:41:55.875Z,5.53
2019-04-23T15:44:16.103Z,5.93
2019-04-23T15:46:56.493Z,6.27
2019-04-23T15:49:30.455Z,6.00
2019-04-23T15:51:56.541Z,6.37
2019-04-23T15:54:25.384Z,6.07
2019-04-23T15:56:55.155Z,6.30
2019-04-23T15:59:36.498Z,5.93
2019-04-23T16:01:41.192Z,6.40
2019-04-23T16:03:59.109Z,6.73
2019-04-23T16:06:30.919Z,6.07
2019-04-23T16:09:16.024Z,6.60
2019-04-23T16:11:52.030Z,6.63
2019-04-23T16:14:32.954Z,6.80
2019-04-23T16:17:08.126Z,7.20
2019-04-23T16:20:09.295Z,6.70
2019-04-23T16:22:30.356Z,7.83
2019-04-23T16:27:20.236Z,7.53
2019-04-23T16:33:07.942Z,7.20
2019-04-23T16:38:10.258Z,8.00
2019-04-23T16:40:36.271Z,7.77
2019-04-23T16:43:03.541Z,8.17
2019-04-23T16:48:06.632Z,8.73
2019-04-23T16:50:41.549Z,8.37
2019-04-23T16:53:09.875Z,8.57
2019-04-23T16:55:37.877Z,8.47
2019-04-23T16:58:11.959Z,9.47
2019-04-23T17:05:42.756Z,8.77
2019-04-23T17:08:35.564Z,9.70
2019-04-23T17:10:48.719Z,8.60
2019-04-23T17:13:18.344Z,8.93
2019-04-23T17:20:51.983Z,9.23
2019-04-23T17:25:55.650Z,9.30
2019-04-23T17:28:28.215Z,9.07
2019-04-23T17:31:26.320Z,9.77
2019-04-23T17:33:41.621Z,9.00
2019-04-23T17:36:38.608Z,8.73
2019-04-23T17:39:36.793Z,9.07
2019-04-23T17:42:28.986Z,9.40
2019-04-23T17:45:26.452Z,10.03
2019-04-23T17:48:04.066Z,10.20
2019-04-23T17:50:34.045Z,10.13
2019-04-23T17:53:05.715Z,9.13
2019-04-23T17:55:31.404Z,9.37
2019-04-23T17:58:06.152Z,9.80
2019-04-23T18:00:40.607Z,8.03
2019-04-23T18:03:04.633Z,8.77
2019-04-23T18:05:40.880Z,7.50
2019-04-23T18:08:11.827Z,9.03
2019-04-23T18:11:06.005Z,8.57
2019-04-23T18:13:19.286Z,7.37
2019-04-23T18:15:49.659Z,8.23
2019-04-23T18:18:10.120Z,8.10
2019-04-23T18:21:21.489Z,8.83
2019-04-23T18:24:00.915Z,8.07
2019-04-23T18:26:46.235Z,9.20
2019-04-23T18:29:25.697Z,8.87
2019-04-23T18:32:13.025Z,7.90
2019-04-23T18:34:54.164Z,8.97
2019-04-23T18:37:10.699Z,8.53
2019-04-23T18:39:43.731Z,8.53
2019-04-23T18:42:21.470Z,8.50
2019-04-23T18:47:24.917Z,8.60
2019-04-23T18:52:29.480Z,9.33
2019-04-23T18:54:48.184Z,8.97
2019-04-23T18:57:40.341Z,9.67
2019-04-23T19:05:26.467Z,9.20
2019-04-23T19:08:42.240Z,8.80
2019-04-23T19:11:13.661Z,9.67
2019-04-23T19:13:44.715Z,9.27
2019-04-23T19:16:21.424Z,9.83
2019-04-23T19:18:56.819Z,9.87
2019-04-23T19:21:45.739Z,9.90
2019-04-23T19:23:57.545Z,11.07
2019-04-23T19:31:55.883Z,9.53
2019-04-23T19:34:40.725Z,10.27
2019-04-23T19:37:02.332Z,9.90
2019-04-23T19:39:40.218Z,9.57
2019-04-23T19:42:29.018Z,9.87
2019-04-23T19:49:48.457Z,9.73
2019-04-23T19:52:34.756Z,9.73
2019-04-23T19:54:59.933Z,9.40
2019-04-23T19:57:42.008Z,9.77
2019-04-23T20:00:02.566Z,9.70
2019-04-23T20:03:03.241Z,9.80
2019-04-23T20:05:13.474Z,9.73
2019-04-23T20:07:56.677Z,8.87
2019-04-23T20:10:21.812Z,9.20
2019-04-23T20:12:50.024Z,9.67
2019-04-23T20:15:30.933Z,10.77
2019-04-23T20:18:00.945Z,10.57
2019-04-23T20:20:42.123Z,10.30
2019-04-23T20:23:13.402Z,10.63
2019-04-23T20:26:05.589Z,10.50
2019-04-23T20:28:31.032Z,10.17
2019-04-23T20:36:05.089Z,9.93
2019-04-23T20:43:42.621Z,10.33
2019-04-23T20:46:08.287Z,10.87
2019-04-23T20:51:04.891Z,10.23
2019-04-23T20:53:43.036Z,10.17
2019-04-23T20:58:54.965Z,10.43
2019-04-23T21:01:38.281Z,10.70
2019-04-23T21:04:04.301Z,10.63
2019-04-23T21:06:39.129Z,10.77
2019-04-23T21:09:28.250Z,10.93
2019-04-23T21:11:40.626Z,11.37
2019-04-23T21:14:22.665Z,10.30
2019-04-23T21:19:05.816Z,11.53
2019-04-23T21:22:02.204Z,11.73
2019-04-23T21:24:36.508Z,11.43
2019-04-23T21:27:10.983Z,10.83
2019-04-23T21:29:46.848Z,11.00
2019-04-23T21:32:14.823Z,10.60
2019-04-23T21:34:43.817Z,10.80
2019-04-23T21:37:46.302Z,10.57
2019-04-23T21:45:31.907Z,9.63
2019-04-23T21:50:37.387Z,10.20
2019-04-23T21:55:32.237Z,10.03
2019-04-23T22:00:42.077Z,10.97
2019-04-23T22:03:11.540Z,9.53
2019-04-23T22:05:45.873Z,9.27
2019-04-23T22:08:02.775Z,10.70
2019-04-23T22:10:47.725Z,10.40
2019-04-23T22:18:09.456Z,9.97
2019-04-23T22:20:44.101Z,9.50
2019-04-23T22:23:11.305Z,10.73
2019-04-23T22:25:49.006Z,10.57
2019-04-23T22:28:11.434Z,11.77
2019-04-23T22:30:49.459Z,12.63
2019-04-23T22:35:49.732Z,13.60
2019-04-23T22:38:30.199Z,11.87
2019-04-23T22:40:53.360Z,12.83
2019-04-23T22:45:58.193Z,12.60
2019-04-23T22:48:17.847Z,11.77
2019-04-23T22:50:57.517Z,12.87
2019-04-23T22:53:13.982Z,12.37
2019-04-23T22:56:01.386Z,11.60
2019-04-23T22:58:11.422Z,12.87
2019-04-23T23:01:12.588Z,13.20
2019-04-23T23:03:47.984Z,12.93
2019-04-23T23:08:50.313Z,11.50
2019-04-23T23:13:52.174Z,11.87
2019-04-23T23:16:07.218Z,13.17
2019-04-23T23:18:40.783Z,12.17
2019-04-23T23:21:14.947Z,12.30
2019-04-23T23:23:39.380Z,11.63
2019-04-23T23:26:17.514Z,11.60
2019-04-23T23:28:40.796Z,11.87
2019-04-23T23:31:11.696Z,12.20
2019-04-23T23:33:47.097Z,11.20
2019-04-23T23:36:12.393Z,12.33
2019-04-23T23:38:52.381Z,12.07
2019-04-23T23:44:19.409Z,10.97
2019-04-23T23:48:48.363Z,12.50
2019-04-23T23:56:15.739Z,11.90
